This is the latest recevied weather packets stored in our database for station/object N4OOJ-13. If no packets are shown the sender has not sent any weather packets the latest 10 day(s).
| Time | Temp. | Humidity | Pressure | Rain* | Wind** | Luminosity | Snow |
|---|---|---|---|---|---|---|---|
| 1777401019 | 20.56° C | 79% | 1021.7 hPa | 0 mm | - | - | - |
| 1777400431 | 20.56° C | 78% | 1022 hPa | 0 mm | - | - | - |
| 1777399832 | 20.56° C | 79% | 1022.3 hPa | 0 mm | - | - | - |
| 1777399226 | 20° C | 79% | 1022.8 hPa | 0 mm | - | - | - |
| 1777398620 | 20.56° C | 76% | 1023.2 hPa | 0 mm | - | - | - |
| 1777398032 | 21.11° C | 75% | 1024 hPa | 0 mm | - | - | - |
| 1777397432 | 21.67° C | 72% | 1024.4 hPa | 0 mm | - | - | - |
| 1777396832 | 21.67° C | 70% | 1024.6 hPa | 0 mm | - | - | - |
| 1777396233 | 21.67° C | 70% | 1024.9 hPa | 0 mm | - | - | - |
| 1777395627 | 21.67° C | 64% | 1025.1 hPa | 0 mm | - | - | - |
| 1777395021 | 21.67° C | 65% | 1025.4 hPa | 0 mm | - | - | - |
| 1777394433 | 21.67° C | 65% | 1026.9 hPa | 0 mm | - | - | - |
| 1777393826 | 22.78° C | 63% | 1027.2 hPa | 0 mm | - | - | - |
| 1777393221 | 22.22° C | 64% | 1027.1 hPa | 0 mm | - | - | - |
| 1777392621 | 22.22° C | 64% | 1027.1 hPa | 0 mm | - | - | - |
| 1777392027 | 22.78° C | 62% | 1027.1 hPa | 0 mm | - | - | - |
| 1777391426 | 21.67° C | 67% | 1027.1 hPa | 0 mm | - | - | - |
| 1777390820 | 21.67° C | 68% | 1027.1 hPa | 0 mm | - | - | - |
| 1777390220 | 21.11° C | 70% | 1027.1 hPa | 0 mm | - | - | - |
| 1777389626 | 21.67° C | 70% | 1027.1 hPa | 0 mm | - | - | - |
| 1777389020 | 22.22° C | 68% | 1026.9 hPa | 0 mm | - | - | - |
| 1777388420 | 21.11° C | 72% | 1026.8 hPa | 0 mm | - | - | - |
| 1777387833 | 21.67° C | 69% | 1026.6 hPa | 0 mm | - | - | - |
| 1777387228 | 20.56° C | 72% | 1025.9 hPa | 0 mm | - | - | - |
| 1777386623 | 21.67° C | 70% | 1025.4 hPa | 0 mm | - | - | - |
* Rain latest hour (hover to see other rain measurements)
** Current wind speed in m/s (hover to see current wind gust speed)